Addison Russell (러셀) Kiwoom Heroes #50 | SS

Throws / Bats
Right / Right
Height / Weight
183cm (6'0") / 88kg (194lbs)
Born
January 23, 1994 (26 years old)
Acquired
2020, Kiwoom Heroes (Unrestricted Free Agent / 자유선발)
Team History
(U.S.) Pace HS
Year Team BA OBP SLG OPS G PA AB R H 2B 3B HR RBI SB CS BB SO TB GDP HBP SH SF IBB RISP PHBA
2020 Kiwoom .263 .330 .335 .665 50 218 194 20 51 11 0 1 25 2 0 19 27 65 6 2 0 3 1 .279 .000
Career .263 .330 .335 .665 50 218 194 20 51 11 0 1 25 2 0 19 27 65 6 2

Compare vs. Other Hitters »

Game Stats -

Date Opp AB R H 2B 3B HR RBI BB HBP BA OBP SLG OPS SB CS GDP
2020-09-29 vs. Kia 4 1 1 1 0 0 1 1 0 .250 .400 .500 .900 0 0 0
2020-09-27 @ Doosan 2 0 0 0 0 0 0 0 0 .000 .000 .000 .000 0 0 0
2020-09-27 @ Doosan 4 0 0 0 0 0 0 0 0 .000 .000 .000 .000 0 0 0
2020-09-26 @ Doosan 4 0 0 0 0 0 0 0 0 .000 .000 .000 .000 0 0 0
2020-09-25 vs. SK 4 0 1 0 0 0 0 1 0 .250 .400 .250 .650 0 0 0
2020-09-24 vs. SK 4 0 1 0 0 0 1 0 0 .250 .250 .250 .500 0 0 0
2020-09-23 @ Kia 5 0 2 1 0 0 1 0 0 .400 .400 .600 1.000 0 0 0
2020-09-20 @ Samsung 3 0 1 0 0 0 0 1 0 .333 .500 .333 .833 0 0 0
2020-09-19 @ Samsung 5 2 1 1 0 0 0 0 0 .200 .200 .400 .600 0 0 0
2020-09-18 vs. Hanwha 4 0 0 0 0 0 0 0 0 .000 .000 .000 .000 0 0 0
2020-09-16 vs. Lotte 2 0 0 0 0 0 0 0 1 .000 .333 .000 .333 0 0 0
2020-09-15 vs. Lotte 5 0 1 0 0 0 1 0 0 .200 .200 .200 .400 0 0 0
2020-09-13 vs. Doosan 7 0 3 0 0 0 0 0 0 .429 .429 .429 .857 0 0 0
2020-09-11 @ LG 5 1 1 0 0 0 0 0 0 .200 .200 .200 .400 0 0 0
2020-09-10 @ LG 3 0 0 0 0 0 0 1 0 .000 .250 .000 .250 0 0 0
2020-09-09 @ SK 3 1 1 0 0 0 3 1 0 .333 .333 .333 .667 1 0 0
2020-09-08 @ SK 4 2 2 1 0 0 1 2 0 .500 .667 .750 1.417 0 0 1
2020-09-06 vs. KT 4 0 2 0 0 0 1 0 0 .500 .500 .500 1.000 0 0 0
2020-09-05 vs. KT 4 0 0 0 0 0 0 0 0 .000 .000 .000 .000 0 0 0
2020-09-04 @ Hanwha 4 0 1 0 0 0 0 0 0 .250 .250 .250 .500 1 0 0
Show More